Time;durP1;ratioP1;P1;durP2;ratioP2;P2;SDS_P1;SDS_P2;PMS_P1;PMS_P2;Temp;Humidity;BMP_temperature;BMP_pressure;BME280_temperature;BME280_humidity;BME280_pressure;Samples;Min_cycle;Max_cycle;Signal;HPM_P1;HPM_P2
2023/05/22 00:01:19;;;;;;;;;;;;;;;27.35;29.13;100429.09;5065678;28;1206;-20
2023/05/22 00:03:45;;;;;;;;;;;;;;;27.37;29.05;100420.78;5069065;28;1131;-20
2023/05/22 00:06:11;;;;;;;;;;;;;;;27.53;28.67;100425.09;5065677;28;1143;-20
2023/05/22 00:08:36;;;;;;;;;;;;;;;27.55;28.96;100422.19;5059427;28;1910;-20
2023/05/22 00:11:02;;;;;;;;;;;;;;;27.48;28.59;100422.97;5056342;28;1134;-20
2023/05/22 00:13:28;;;;;;;;;;;;;;;27.55;28.93;100428.44;5072228;28;1111;-20
2023/05/22 00:15:53;;;;;;;;;;;;;;;27.45;28.62;100425.22;5066442;28;1160;-20
2023/05/22 00:18:18;;;;;;;;;;;;;;;27.42;29.05;100414.81;5071656;28;1159;-20
2023/05/22 00:20:45;;;;;;;;;;;;;;;27.55;28.70;100406.81;5066682;28;1146;-20
2023/05/22 00:23:11;;;;;;;;;;;;;;;27.50;28.82;100406.56;5074880;28;1086;-20
2023/05/22 00:25:36;;;;;;;;;;;;;;;27.51;28.75;100409.06;5069686;28;1053;-20
2023/05/22 00:28:02;;;;;;;;;;;;;;;27.58;28.54;100406.44;5062403;28;1071;-20
2023/05/22 00:30:27;;;;;;;;;;;;;;;27.47;28.72;100409.66;5079760;28;1913;-20
2023/05/22 00:32:53;;;;;;;;;;;;;;;27.34;28.97;100410.38;5079482;28;1194;-20
2023/05/22 00:35:19;;;;;;;;;;;;;;;27.43;28.94;100409.22;5069649;28;1043;-20
2023/05/22 00:37:45;;;;;;;;;;;;;;;27.41;29.04;100410.44;5062163;28;1077;-20
2023/05/22 00:40:11;;;;;;;;;;;;;;;27.53;28.67;100406.19;5060962;28;1100;-20
2023/05/22 00:42:37;;;;;;;;;;;;;;;27.46;29.24;100413.41;5063118;28;1130;-20
2023/05/22 00:45:03;;;;;;;;;;;;;;;27.54;28.74;100415.97;5050726;28;1235;-20
2023/05/22 00:47:29;;;;;;;;;;;;;;;27.45;29.03;100417.97;5075885;28;998;-20
2023/05/22 00:49:54;;;;;;;;;;;;;;;27.58;28.35;100405.59;5059232;28;1902;-20
2023/05/22 00:52:20;;;;;;;;;;;;;;;27.58;28.73;100416.41;5062221;28;1035;-20
2023/05/22 00:54:45;;;;;;;;;;;;;;;27.35;28.59;100420.13;5069077;28;1126;-20
2023/05/22 00:57:11;;;;;;;;;;;;;;;27.40;28.76;100420.41;5075119;28;1195;-20
2023/05/22 00:59:36;;;;;;;;;;;;;;;27.19;29.07;100411.28;5051464;28;1214;-20
2023/05/22 01:02:02;;;;;;;;;;;;;;;27.34;28.73;100415.78;5057281;28;1102;-20
2023/05/22 01:04:31;;;;;;;;;;;;;;;27.25;29.11;100424.00;5077573;28;1194;-20
2023/05/22 01:06:57;;;;;;;;;;;;;;;27.49;28.56;100413.00;5058783;28;1142;-20
2023/05/22 01:09:23;;;;;;;;;;;;;;;27.23;28.88;100412.56;5068192;28;1909;-20
2023/05/22 01:11:48;;;;;;;;;;;;;;;27.33;28.83;100404.13;5078544;28;1079;-20
2023/05/22 01:14:29;;;;;;;;;;;;;;;27.43;28.62;100402.97;5078776;28;1027;-20
2023/05/22 01:17:07;;;;;;;;;;;;;;;27.34;28.79;100397.69;5065360;28;1115;-20
2023/05/22 01:19:52;;;;;;;;;;;;;;;27.42;28.73;100390.50;5065603;28;1006;-20
2023/05/22 01:22:29;;;;;;;;;;;;;;;27.35;28.79;100396.69;5058747;28;1066;-20
2023/05/22 01:25:04;;;;;;;;;;;;;;;27.39;28.92;100405.25;5023952;28;1111;-20
2023/05/22 01:27:33;;;;;;;;;;;;;;;27.39;28.47;100403.34;5070215;28;1108;-20
2023/05/22 01:30:03;;;;;;;;;;;;;;;27.43;28.94;100411.91;5064459;28;1973;-20
2023/05/22 01:32:28;;;;;;;;;;;;;;;27.41;28.99;100411.25;5077919;28;1063;-20
2023/05/22 01:34:55;;;;;;;;;;;;;;;27.25;29.10;100410.50;5047209;28;1150;-20
2023/05/22 01:37:21;;;;;;;;;;;;;;;27.28;29.13;100420.06;5047695;28;1190;-20
2023/05/22 01:39:47;;;;;;;;;;;;;;;27.33;28.87;100414.09;5059966;28;1230;-20
2023/05/22 01:42:13;;;;;;;;;;;;;;;27.18;29.21;100420.38;5060040;28;1130;-20
2023/05/22 01:44:39;;;;;;;;;;;;;;;27.20;28.92;100415.63;5071318;28;1206;-21
2023/05/22 01:47:07;;;;;;;;;;;;;;;27.22;28.96;100420.84;5050619;28;1202;-20
2023/05/22 01:49:32;;;;;;;;;;;;;;;27.23;29.00;100423.34;5065113;28;1910;-20
2023/05/22 01:52:01;;;;;;;;;;;;;;;27.24;28.91;100414.22;5046792;28;1093;-20
2023/05/22 01:54:27;;;;;;;;;;;;;;;27.17;29.12;100421.44;5057978;28;1250;-20
2023/05/22 01:56:55;;;;;;;;;;;;;;;27.21;28.94;100421.88;5077613;28;1044;-20
2023/05/22 01:59:25;;;;;;;;;;;;;;;27.07;29.22;100421.75;5047485;28;1412;-20
2023/05/22 02:01:51;;;;;;;;;;;;;;;27.06;29.25;100420.06;5059451;28;1183;-20
2023/05/22 02:04:17;;;;;;;;;;;;;;;27.02;29.56;100419.63;5069864;28;1039;-20
2023/05/22 02:06:43;;;;;;;;;;;;;;;26.82;29.66;100410.41;5053268;28;985;-20
2023/05/22 02:09:09;;;;;;;;;;;;;;;26.80;29.87;100415.16;5046966;28;1906;-20
2023/05/22 02:11:37;;;;;;;;;;;;;;;26.82;29.99;100407.72;5045195;28;1405;-20
2023/05/22 02:14:02;;;;;;;;;;;;;;;26.78;29.94;100407.25;5058002;28;1051;-20
2023/05/22 02:16:29;;;;;;;;;;;;;;;26.75;29.86;100407.63;5070678;28;1035;-20
2023/05/22 02:19:04;;;;;;;;;;;;;;;26.75;30.13;100415.72;5051832;28;1147;-20
2023/05/22 02:21:34;;;;;;;;;;;;;;;26.68;30.11;100412.94;5052744;28;1138;-20
2023/05/22 02:24:00;;;;;;;;;;;;;;;26.82;30.16;100424.75;5066757;28;1125;-20
2023/05/22 02:26:26;;;;;;;;;;;;;;;26.71;30.21;100419.84;5077265;28;1078;-20
2023/05/22 02:28:51;;;;;;;;;;;;;;;26.75;29.92;100423.81;5058907;28;1906;-20
2023/05/22 02:31:17;;;;;;;;;;;;;;;26.80;29.76;100409.75;5073616;28;1082;-20
2023/05/22 02:33:43;;;;;;;;;;;;;;;26.84;30.11;100411.88;5039650;28;1257;-21
2023/05/22 02:36:09;;;;;;;;;;;;;;;26.81;30.00;100416.84;5057393;28;1102;-20
2023/05/22 02:38:35;;;;;;;;;;;;;;;26.87;29.65;100414.22;5066612;28;1066;-20
2023/05/22 02:41:01;;;;;;;;;;;;;;;26.83;30.08;100404.81;5063349;28;1072;-20
2023/05/22 02:43:26;;;;;;;;;;;;;;;26.75;29.82;100411.16;5059178;28;1130;-20
2023/05/22 02:45:52;;;;;;;;;;;;;;;26.83;30.02;100406.66;5045093;28;1233;-20
2023/05/22 02:48:18;;;;;;;;;;;;;;;26.96;29.92;100414.94;5058892;28;1939;-20
2023/05/22 02:50:43;;;;;;;;;;;;;;;26.66;30.34;100409.59;5058412;28;1910;-20
2023/05/22 02:53:09;;;;;;;;;;;;;;;26.73;30.04;100412.38;5076157;28;1405;-20
2023/05/22 02:55:35;;;;;;;;;;;;;;;26.76;29.97;100409.28;5042843;28;1426;-20
2023/05/22 02:58:01;;;;;;;;;;;;;;;26.76;30.18;100406.59;5066567;28;1039;-20
2023/05/22 03:00:26;;;;;;;;;;;;;;;26.78;30.20;100401.84;5055776;28;1142;-20
2023/05/22 03:02:53;;;;;;;;;;;;;;;26.83;29.62;100409.38;5048583;28;1268;-20
2023/05/22 03:05:19;;;;;;;;;;;;;;;26.76;29.90;100409.28;5073137;28;1084;-20
2023/05/22 03:07:44;;;;;;;;;;;;;;;26.72;30.27;100413.41;5056635;28;1064;-20
2023/05/22 03:10:10;;;;;;;;;;;;;;;26.84;29.89;100416.47;5058803;28;1918;-20
2023/05/22 03:12:36;;;;;;;;;;;;;;;26.78;29.97;100412.66;5067743;28;1190;-20
2023/05/22 03:15:01;;;;;;;;;;;;;;;26.85;29.40;100413.56;5053775;28;1083;-20
2023/05/22 03:17:27;;;;;;;;;;;;;;;26.95;29.73;100407.03;5049733;28;1135;-20
2023/05/22 03:19:53;;;;;;;;;;;;;;;26.85;29.76;100410.03;5069918;28;1044;-20
2023/05/22 03:22:19;;;;;;;;;;;;;;;26.86;29.70;100411.72;5038299;28;1826;-20
2023/05/22 03:24:44;;;;;;;;;;;;;;;26.90;29.61;100407.59;5069853;28;1191;-20
2023/05/22 03:27:13;;;;;;;;;;;;;;;26.78;29.97;100407.25;5038646;28;1211;-20
2023/05/22 03:29:40;;;;;;;;;;;;;;;26.84;29.68;100417.28;5040210;28;1910;-20
2023/05/22 03:32:06;;;;;;;;;;;;;;;26.76;29.78;100415.53;5072331;28;1202;-21
2023/05/22 03:34:31;;;;;;;;;;;;;;;25.67;32.23;100412.28;5056672;28;1107;-20
2023/05/22 03:36:58;;;;;;;;;;;;;;;23.63;36.55;100407.16;5038394;28;1257;-21
2023/05/22 03:39:24;;;;;;;;;;;;;;;24.20;35.57;100401.91;5056429;28;1023;-21
2023/05/22 03:41:55;;;;;;;;;;;;;;;24.94;34.36;100403.50;5055059;28;1307;-20
2023/05/22 03:44:22;;;;;;;;;;;;;;;25.04;33.81;100394.38;5046122;28;1325;-20
2023/05/22 03:46:48;;;;;;;;;;;;;;;24.80;34.85;100397.00;5056381;28;1146;-20
2023/05/22 03:49:14;;;;;;;;;;;;;;;24.92;34.68;100386.69;5058116;28;1909;-21
2023/05/22 03:51:39;;;;;;;;;;;;;;;24.83;34.27;100393.09;5073155;28;1207;-35
2023/05/22 03:54:05;;;;;;;;;;;;;;;24.02;36.08;100396.72;5064810;28;1189;-30
2023/05/22 03:56:30;;;;;;;;;;;;;;;24.13;36.32;100388.28;5076057;28;1385;-28
2023/05/22 03:58:56;;;;;;;;;;;;;;;24.16;36.57;100396.03;5066433;28;1130;-29
2023/05/22 04:01:22;;;;;;;;;;;;;;;24.63;35.83;100400.75;5080072;28;1067;-31
2023/05/22 04:03:47;;;;;;;;;;;;;;;24.72;35.86;100406.94;5047068;28;1082;-28
2023/05/22 04:06:13;;;;;;;;;;;;;;;24.90;35.67;100404.00;5069896;28;1050;-29
2023/05/22 04:08:39;;;;;;;;;;;;;;;24.53;36.33;100399.13;5032196;28;1984;-33
2023/05/22 04:11:04;;;;;;;;;;;;;;;24.62;36.43;100399.94;5080040;28;1089;-29
2023/05/22 04:13:30;;;;;;;;;;;;;;;24.66;36.32;100403.94;5066005;28;1063;-29
2023/05/22 04:15:56;;;;;;;;;;;;;;;24.82;36.35;100405.69;5061720;28;1159;-28
2023/05/22 04:18:21;;;;;;;;;;;;;;;24.76;36.48;100410.94;5058353;28;1261;-28
2023/05/22 04:20:47;;;;;;;;;;;;;;;24.36;36.98;100413.66;5052197;28;1130;-29
2023/05/22 04:23:12;;;;;;;;;;;;;;;24.66;36.79;100417.38;5062691;28;1154;-30
2023/05/22 04:25:38;;;;;;;;;;;;;;;24.84;36.27;100410.91;5034880;28;1134;-30
2023/05/22 04:28:03;;;;;;;;;;;;;;;25.00;36.26;100403.81;5078405;28;1207;-29
2023/05/22 04:30:32;;;;;;;;;;;;;;;25.00;36.16;100406.50;5077937;28;1973;-31
2023/05/22 04:32:59;;;;;;;;;;;;;;;24.85;36.55;100406.38;5048025;28;1258;-29
2023/05/22 04:35:28;;;;;;;;;;;;;;;24.86;36.22;100403.50;5051244;28;1151;-30
2023/05/22 04:37:54;;;;;;;;;;;;;;;25.41;35.70;100402.69;5046495;28;1186;-31
2023/05/22 04:40:20;;;;;;;;;;;;;;;25.81;34.51;100405.25;5040122;28;1103;-31
2023/05/22 04:42:45;;;;;;;;;;;;;;;26.10;33.13;100402.78;5075889;28;1244;-32
2023/05/22 04:45:12;;;;;;;;;;;;;;;26.35;32.90;100414.19;5065075;28;1149;-35
2023/05/22 04:47:40;;;;;;;;;;;;;;;26.46;32.80;100415.56;5079472;28;1079;-31
2023/05/22 04:50:06;;;;;;;;;;;;;;;26.41;32.79;100412.59;5073683;28;1914;-34
2023/05/22 04:52:32;;;;;;;;;;;;;;;26.41;32.73;100412.59;5053976;28;1128;-30
2023/05/22 04:54:57;;;;;;;;;;;;;;;26.48;32.91;100412.69;5056922;28;1323;-29
2023/05/22 04:57:26;;;;;;;;;;;;;;;26.53;32.60;100416.50;5063747;28;1371;-31
2023/05/22 04:59:52;;;;;;;;;;;;;;;26.39;32.82;100412.78;5057153;28;1511;-32
2023/05/22 05:02:18;;;;;;;;;;;;;;;26.61;32.68;100406.63;5043152;28;1142;-31
2023/05/22 05:04:43;;;;;;;;;;;;;;;26.44;32.98;100403.31;5050147;28;1328;-29
2023/05/22 05:07:09;;;;;;;;;;;;;;;26.21;33.75;100409.59;5055376;28;1413;-30
2023/05/22 05:09:36;;;;;;;;;;;;;;;26.58;33.22;100407.84;5044419;28;1966;-31
2023/05/22 05:12:02;;;;;;;;;;;;;;;26.75;32.70;100419.28;5040119;28;1438;-33
2023/05/22 05:14:28;;;;;;;;;;;;;;;26.74;32.83;100419.47;5043240;28;1332;-28
2023/05/22 05:16:53;;;;;;;;;;;;;;;26.72;32.88;100419.66;5059477;28;1127;-29
2023/05/22 05:19:22;;;;;;;;;;;;;;;26.75;32.66;100416.56;5073447;28;1097;-32
2023/05/22 05:21:48;;;;;;;;;;;;;;;26.59;33.08;100419.47;5047970;28;1408;-30
2023/05/22 05:24:17;;;;;;;;;;;;;;;26.70;32.61;100418.16;5052524;28;1092;-31
2023/05/22 05:26:43;;;;;;;;;;;;;;;26.86;32.05;100407.13;5047329;28;1238;-32
2023/05/22 05:29:09;;;;;;;;;;;;;;;26.90;32.47;100416.53;5059303;28;1902;-33
2023/05/22 05:31:39;;;;;;;;;;;;;;;26.76;33.04;100406.59;5051161;28;1193;-32
2023/05/22 05:34:27;;;;;;;;;;;;;;;26.48;33.62;100408.13;5062238;28;1217;-30
2023/05/22 05:37:04;;;;;;;;;;;;;;;26.57;34.16;100410.72;5058730;28;1250;-32
2023/05/22 05:39:31;;;;;;;;;;;;;;;26.67;33.52;100410.44;5053685;28;1112;-30
2023/05/22 05:41:59;;;;;;;;;;;;;;;26.70;33.87;100408.19;5037305;28;1207;-30
2023/05/22 05:44:25;;;;;;;;;;;;;;;27.10;32.86;100410.56;5053461;28;1337;-32
2023/05/22 05:46:51;;;;;;;;;;;;;;;27.08;32.70;100418.00;5040335;28;1130;-32
2023/05/22 05:49:18;;;;;;;;;;;;;;;27.12;32.76;100413.91;5053776;28;1906;-31
2023/05/22 05:51:45;;;;;;;;;;;;;;;27.00;33.07;100413.53;5040340;28;1190;-31
2023/05/22 05:54:10;;;;;;;;;;;;;;;27.05;33.15;100413.00;5048875;28;1111;-29
2023/05/22 05:56:36;;;;;;;;;;;;;;;26.88;33.54;100413.19;5057639;28;1332;-33
2023/05/22 05:59:03;;;;;;;;;;;;;;;27.02;33.01;100413.38;5043777;28;1364;-30
2023/05/22 06:01:32;;;;;;;;;;;;;;;27.01;33.64;100409.84;5072811;28;1071;-30
2023/05/22 06:04:02;;;;;;;;;;;;;;;26.80;33.88;100420.53;5055489;28;1222;-26
2023/05/22 06:06:34;;;;;;;;;;;;;;;26.74;34.09;100420.28;5055046;28;1616;-29
2023/05/22 06:09:08;;;;;;;;;;;;;;;26.84;34.20;100419.97;5067636;28;1897;-31
2023/05/22 06:11:48;;;;;;;;;;;;;;;27.05;33.30;100428.34;5055825;28;1302;-31
2023/05/22 06:14:13;;;;;;;;;;;;;;;26.27;35.27;100427.72;5039869;28;1139;-29
2023/05/22 06:16:39;;;;;;;;;;;;;;;25.44;36.70;100427.41;5057786;28;1186;-29
2023/05/22 06:19:05;;;;;;;;;;;;;;;25.43;36.70;100424.88;5046171;28;1205;-28
2023/05/22 06:21:30;;;;;;;;;;;;;;;25.36;36.98;100424.75;5059609;28;1328;-29
2023/05/22 06:23:56;;;;;;;;;;;;;;;25.75;35.68;100433.78;5059775;28;1171;-30
2023/05/22 06:26:24;;;;;;;;;;;;;;;25.29;36.79;100426.53;5058995;28;1238;-27
2023/05/22 06:28:50;;;;;;;;;;;;;;;25.90;35.68;100431.13;5050677;28;1898;-29
2023/05/22 06:31:18;;;;;;;;;;;;;;;26.31;34.77;100431.72;5052457;28;1266;-31
2023/05/22 06:33:46;;;;;;;;;;;;;;;25.93;35.09;100438.00;5048593;28;1140;-30
2023/05/22 06:36:12;;;;;;;;;;;;;;;26.68;33.22;100418.34;5047383;28;1360;-32
2023/05/22 06:38:38;;;;;;;;;;;;;;;26.23;34.99;100413.78;5077034;28;1099;-30
2023/05/22 06:41:05;;;;;;;;;;;;;;;26.08;35.71;100423.69;5076636;28;1113;-29
2023/05/22 06:43:31;;;;;;;;;;;;;;;25.44;35.38;100427.41;5057865;28;1115;-32
2023/05/22 06:46:00;;;;;;;;;;;;;;;25.21;36.40;100429.25;5056258;28;1109;-31
2023/05/22 06:48:32;;;;;;;;;;;;;;;25.95;35.24;100424.31;5058883;28;1191;-29
2023/05/22 06:51:17;;;;;;;;;;;;;;;26.55;32.95;100410.91;5051895;28;1236;-28
2023/05/22 06:53:48;;;;;;;;;;;;;;;26.54;34.84;100422.75;5039707;28;1183;-30
2023/05/22 06:56:18;;;;;;;;;;;;;;;26.48;34.92;100427.00;5040685;28;1163;-32
2023/05/22 06:58:57;;;;;;;;;;;;;;;26.37;35.18;100417.53;5038845;28;1488;-27
2023/05/22 07:01:34;;;;;;;;;;;;;;;26.72;34.96;100425.03;5051728;28;1211;-31
2023/05/22 07:04:12;;;;;;;;;;;;;;;26.12;35.53;100433.94;5055182;28;1181;-32
2023/05/22 07:06:54;;;;;;;;;;;;;;;26.28;34.09;100429.38;5054614;28;1949;-29
2023/05/22 07:09:20;;;;;;;;;;;;;;;26.71;33.90;100428.75;5038818;28;1983;-30
2023/05/22 07:11:47;;;;;;;;;;;;;;;26.64;31.12;100425.97;5052254;28;1103;-28
2023/05/22 07:14:14;;;;;;;;;;;;;;;26.55;30.11;100423.56;5047946;28;1245;-28
2023/05/22 07:16:41;;;;;;;;;;;;;;;26.64;30.14;100427.84;5042860;28;1318;-29
2023/05/22 07:19:07;;;;;;;;;;;;;;;26.70;30.98;100426.25;5046430;28;1410;-31
2023/05/22 07:21:34;;;;;;;;;;;;;;;26.88;31.30;100415.88;5054040;28;1379;-30
2023/05/22 07:24:07;;;;;;;;;;;;;;;27.09;31.09;100413.44;5039520;28;1298;-31
2023/05/22 07:26:35;;;;;;;;;;;;;;;27.22;30.59;100416.28;5057257;28;1217;-29
2023/05/22 07:29:05;;;;;;;;;;;;;;;27.02;32.09;100416.91;5045062;28;2123;-31
2023/05/22 07:31:32;;;;;;;;;;;;;;;27.01;31.30;100414.34;5044504;28;1130;-29
2023/05/22 07:33:59;;;;;;;;;;;;;;;27.33;30.24;100411.38;5058166;28;1413;-28
2023/05/22 07:36:26;;;;;;;;;;;;;;;27.50;30.64;100407.41;5036379;28;1329;-31
2023/05/22 07:38:52;;;;;;;;;;;;;;;27.29;31.86;100413.66;5039024;28;1310;-32
2023/05/22 07:41:18;;;;;;;;;;;;;;;27.51;30.53;100409.06;5059750;28;1380;-30
2023/05/22 07:43:43;;;;;;;;;;;;;;;27.68;28.91;100402.56;5063375;28;1333;-29
2023/05/22 07:46:12;;;;;;;;;;;;;;;27.69;29.31;100399.72;5057934;28;1226;-29
2023/05/22 07:48:48;;;;;;;;;;;;;;;27.60;29.52;100395.44;5056018;28;1906;-29
2023/05/22 07:51:15;;;;;;;;;;;;;;;27.85;27.26;100389.63;5065868;28;1305;-28
2023/05/22 07:53:41;;;;;;;;;;;;;;;28.01;27.81;100391.19;5055900;28;1312;-31
2023/05/22 07:56:06;;;;;;;;;;;;;;;28.08;26.72;100394.78;5056536;28;1223;-28
2023/05/22 07:58:33;;;;;;;;;;;;;;;28.06;27.57;100387.91;5048096;28;1267;-32
2023/05/22 08:01:00;;;;;;;;;;;;;;;28.03;28.81;100383.72;5046171;28;1405;-29
2023/05/22 08:03:26;;;;;;;;;;;;;;;28.15;28.06;100389.41;5060735;28;1183;-30
2023/05/22 08:05:51;;;;;;;;;;;;;;;28.03;28.21;100396.41;5070008;28;1206;-31
2023/05/22 08:08:17;;;;;;;;;;;;;;;28.31;27.61;100396.34;5061811;28;1055;-28
2023/05/22 08:10:42;;;;;;;;;;;;;;;28.05;28.43;100388.91;5055491;28;1914;-29
2023/05/22 08:13:08;;;;;;;;;;;;;;;28.04;28.07;100388.09;5065066;28;1063;-31
2023/05/22 08:15:34;;;;;;;;;;;;;;;28.20;28.15;100381.53;5069139;28;1144;-28
2023/05/22 08:18:00;;;;;;;;;;;;;;;22.72;38.46;100384.47;5065752;28;1230;-29
2023/05/22 08:20:25;;;;;;;;;;;;;;;19.20;45.03;100375.44;5074392;28;1067;-29
2023/05/22 08:22:51;;;;;;;;;;;;;;;18.40;45.66;100380.66;5066021;28;1098;-31
2023/05/22 08:25:16;;;;;;;;;;;;;;;17.85;45.89;100385.25;5056150;28;1102;-32
2023/05/22 08:27:42;;;;;;;;;;;;;;;17.52;46.39;100369.28;5055988;28;1309;-32
2023/05/22 08:30:08;;;;;;;;;;;;;;;16.87;47.31;100376.22;5059138;28;1979;-32
2023/05/22 08:32:33;;;;;;;;;;;;;;;16.51;47.68;100376.41;5074792;28;1114;-32
2023/05/22 08:34:59;;;;;;;;;;;;;;;16.43;47.99;100381.47;5046873;28;1054;-30
2023/05/22 08:37:25;;;;;;;;;;;;;;;16.38;48.20;100380.97;5056872;28;1246;-31
2023/05/22 08:39:50;;;;;;;;;;;;;;;15.91;47.88;100373.88;5077585;28;1345;-30
2023/05/22 08:42:16;;;;;;;;;;;;;;;15.44;48.86;100377.34;5065261;28;1063;-30
2023/05/22 08:44:41;;;;;;;;;;;;;;;16.50;53.17;100376.50;5069408;28;1250;-34
2023/05/22 08:47:10;;;;;;;;;;;;;;;17.41;52.46;100374.66;5067880;28;1428;-30
2023/05/22 08:49:36;;;;;;;;;;;;;;;17.52;52.39;100374.63;5044850;28;1988;-30
2023/05/22 08:52:08;;;;;;;;;;;;;;;17.99;52.76;100386.72;5044708;28;1183;-31
2023/05/22 08:54:34;;;;;;;;;;;;;;;17.86;53.33;100376.28;5067640;28;1523;-33
2023/05/22 08:56:59;;;;;;;;;;;;;;;18.10;52.94;100376.00;5057475;28;1199;-31
2023/05/22 08:59:25;;;;;;;;;;;;;;;18.20;52.55;100378.72;5072722;28;1118;-29
2023/05/22 09:01:51;;;;;;;;;;;;;;;18.31;52.27;100379.63;5053211;28;1403;-31
2023/05/22 09:04:16;;;;;;;;;;;;;;;18.35;51.96;100371.25;5040822;28;1229;-32
2023/05/22 09:06:42;;;;;;;;;;;;;;;18.47;51.56;100366.66;5056495;28;1199;-32
2023/05/22 09:09:09;;;;;;;;;;;;;;;18.63;50.27;100368.00;5073744;28;1918;-31
2023/05/22 09:11:35;;;;;;;;;;;;;;;18.55;50.66;100363.31;5077314;28;995;-28
2023/05/22 09:14:18;;;;;;;;;;;;;;;18.52;50.41;100363.59;5067551;28;982;-32
2023/05/22 09:16:48;;;;;;;;;;;;;;;18.38;50.63;100369.28;5075325;28;1067;-32
2023/05/22 09:19:13;;;;;;;;;;;;;;;18.52;49.68;100368.09;5069928;28;964;-33
2023/05/22 09:21:39;;;;;;;;;;;;;;;18.61;49.35;100367.28;5077645;28;1099;-34
2023/05/22 09:24:06;;;;;;;;;;;;;;;18.45;49.65;100365.94;5067949;28;1023;-28
2023/05/22 09:26:32;;;;;;;;;;;;;;;18.35;49.88;100365.91;5076017;28;1027;-30
2023/05/22 09:28:58;;;;;;;;;;;;;;;18.45;49.43;100359.81;5078045;28;1982;-34
2023/05/22 09:31:23;;;;;;;;;;;;;;;20.67;43.58;100359.25;5078214;28;1296;-28
2023/05/22 09:33:49;;;;;;;;;;;;;;;23.14;37.00;100356.94;5065063;28;920;-28
2023/05/22 09:36:14;;;;;;;;;;;;;;;24.31;34.22;100361.22;5069409;28;1122;-31
2023/05/22 09:38:40;;;;;;;;;;;;;;;24.93;32.44;100361.47;5072307;28;1166;-31
2023/05/22 09:41:05;;;;;;;;;;;;;;;25.29;32.26;100351.97;5071076;28;1106;-31
2023/05/22 09:43:31;;;;;;;;;;;;;;;25.39;32.78;100350.88;5072525;28;1162;-30
2023/05/22 09:45:57;;;;;;;;;;;;;;;25.63;31.96;100363.31;5061539;28;1201;-30
2023/05/22 09:48:23;;;;;;;;;;;;;;;25.54;31.68;100351.75;5042588;28;1418;-30
2023/05/22 09:50:49;;;;;;;;;;;;;;;25.75;31.33;100349.41;5059346;28;1914;-31
2023/05/22 09:53:15;;;;;;;;;;;;;;;25.94;31.31;100355.28;5057883;28;1180;-31
2023/05/22 09:55:40;;;;;;;;;;;;;;;25.97;31.01;100349.53;5060815;28;1243;-32
2023/05/22 09:58:07;;;;;;;;;;;;;;;25.83;31.76;100351.19;5067376;28;941;-30
2023/05/22 10:00:33;;;;;;;;;;;;;;;25.90;31.32;100358.34;5053142;28;1227;-28
2023/05/22 10:03:07;;;;;;;;;;;;;;;26.09;31.99;100355.31;5052797;28;1282;-34
2023/05/22 10:05:33;;;;;;;;;;;;;;;26.26;30.71;100356.78;5059641;28;1197;-29
2023/05/22 10:08:04;;;;;;;;;;;;;;;26.32;31.17;100360.59;5040389;28;1115;-33
2023/05/22 10:10:29;;;;;;;;;;;;;;;26.49;31.01;100353.16;5057766;28;1902;-29
2023/05/22 10:12:55;;;;;;;;;;;;;;;26.48;30.85;100359.56;5057556;28;1119;-31
2023/05/22 10:15:20;;;;;;;;;;;;;;;26.62;30.16;100357.88;5070149;28;1079;-30
2023/05/22 10:17:46;;;;;;;;;;;;;;;26.60;30.56;100359.94;5057810;28;1046;-30
2023/05/22 10:20:12;;;;;;;;;;;;;;;26.28;33.31;100361.97;5069917;28;1104;-32
2023/05/22 10:22:37;;;;;;;;;;;;;;;26.06;35.35;100366.47;5077269;28;1094;-30
2023/05/22 10:25:03;;;;;;;;;;;;;;;25.55;37.22;100348.06;5065173;28;1118;-30
2023/05/22 10:27:29;;;;;;;;;;;;;;;24.62;39.04;100350.69;5070127;28;1038;-31
2023/05/22 10:29:57;;;;;;;;;;;;;;;25.85;36.14;100365.31;5057144;28;1901;-29
2023/05/22 10:32:26;;;;;;;;;;;;;;;24.93;39.35;100374.91;5052136;28;1211;-30
2023/05/22 10:35:15;;;;;;;;;;;;;;;24.27;43.13;100354.53;5056072;28;1277;-31
2023/05/22 10:37:42;;;;;;;;;;;;;;;24.63;42.55;100363.09;5060118;28;1038;-29
2023/05/22 10:40:08;;;;;;;;;;;;;;;24.15;43.26;100372.84;5039119;28;1104;-28
2023/05/22 10:42:34;;;;;;;;;;;;;;;24.03;43.08;100368.81;5037081;28;1096;-28
2023/05/22 10:45:00;;;;;;;;;;;;;;;23.91;44.25;100366.50;5051475;28;1332;-29
2023/05/22 10:47:26;;;;;;;;;;;;;;;23.40;46.75;100364.88;5070501;28;1095;-28
2023/05/22 10:50:01;;;;;;;;;;;;;;;23.26;48.68;100352.06;5063064;28;1960;-30
2023/05/22 10:52:26;;;;;;;;;;;;;;;22.86;50.85;100356.22;5062384;28;1075;-31
2023/05/22 10:54:53;;;;;;;;;;;;;;;22.86;52.16;100356.22;5064467;28;1126;-29
2023/05/22 10:57:19;;;;;;;;;;;;;;;22.92;52.78;100368.09;5068603;28;1150;-29
2023/05/22 10:59:48;;;;;;;;;;;;;;;22.88;52.47;100369.44;5074805;28;1551;-30
2023/05/22 11:02:20;;;;;;;;;;;;;;;22.39;55.74;100362.88;5061076;28;1086;-28
2023/05/22 11:04:45;;;;;;;;;;;;;;;22.81;54.48;100363.91;5068703;28;1505;-30
2023/05/22 11:07:13;;;;;;;;;;;;;;;22.91;56.22;100355.72;5062500;28;1082;-29
2023/05/22 11:09:47;;;;;;;;;;;;;;;22.96;54.54;100360.56;5074266;28;1973;-30
2023/05/22 11:12:29;;;;;;;;;;;;;;;22.91;51.83;100347.66;5058003;28;1207;-29
2023/05/22 11:14:58;;;;;;;;;;;;;;;22.79;52.50;100352.50;5058209;28;1352;-30
2023/05/22 11:17:30;;;;;;;;;;;;;;;23.10;50.61;100356.44;5075809;28;1111;-29
2023/05/22 11:20:06;;;;;;;;;;;;;;;22.89;50.45;100356.88;5044919;28;1044;-30
2023/05/22 11:22:34;;;;;;;;;;;;;;;23.50;48.92;100366.53;5046968;28;1347;-30
2023/05/22 11:24:59;;;;;;;;;;;;;;;23.77;48.12;100356.47;5074200;28;1118;-30
2023/05/22 11:27:25;;;;;;;;;;;;;;;23.52;48.70;100362.69;5046913;28;1465;-29
2023/05/22 11:29:50;;;;;;;;;;;;;;;23.93;47.99;100364.50;5051926;28;1985;-30
2023/05/22 11:32:19;;;;;;;;;;;;;;;24.05;47.93;100366.81;5075351;28;1155;-29
2023/05/22 11:34:45;;;;;;;;;;;;;;;23.78;49.77;100355.44;5074332;28;1078;-30
2023/05/22 11:37:11;;;;;;;;;;;;;;;23.07;51.43;100362.94;5074084;28;1151;-29
2023/05/22 11:39:36;;;;;;;;;;;;;;;22.90;51.39;100359.41;5071363;28;1359;-28
2023/05/22 11:42:03;;;;;;;;;;;;;;;22.85;51.44;100367.94;5073631;28;1007;-30
2023/05/22 11:44:29;;;;;;;;;;;;;;;23.23;50.49;100366.66;5059509;28;1204;-28
2023/05/22 11:46:54;;;;;;;;;;;;;;;24.86;45.67;100363.16;5061558;28;1009;-28
2023/05/22 11:49:22;;;;;;;;;;;;;;;25.61;44.20;100359.94;5071118;28;1979;-29
2023/05/22 11:51:48;;;;;;;;;;;;;;;26.19;41.53;100363.09;5044847;28;1033;-28
2023/05/22 11:54:16;;;;;;;;;;;;;;;26.29;40.99;100351.00;5062002;28;1124;-31
2023/05/22 11:56:43;;;;;;;;;;;;;;;26.65;40.55;100351.28;5067650;28;1141;-30
2023/05/22 11:59:08;;;;;;;;;;;;;;;26.95;39.55;100345.78;5069048;28;992;-31
2023/05/22 12:01:35;;;;;;;;;;;;;;;26.98;39.51;100347.25;5054138;28;1253;-31
2023/05/22 12:04:00;;;;;;;;;;;;;;;26.77;39.89;100351.63;5070101;28;1195;-29
2023/05/22 12:06:26;;;;;;;;;;;;;;;26.58;39.81;100353.03;5076426;28;1282;-31
2023/05/22 12:08:51;;;;;;;;;;;;;;;26.80;39.44;100345.84;5057892;28;1991;-33
2023/05/22 12:11:17;;;;;;;;;;;;;;;26.85;39.06;100356.06;5057024;28;1002;-34
2023/05/22 12:13:44;;;;;;;;;;;;;;;26.74;39.47;100355.50;5057195;28;1053;-29
2023/05/22 12:16:20;;;;;;;;;;;;;;;26.63;39.82;100364.09;5063992;28;1285;-32
2023/05/22 12:18:46;;;;;;;;;;;;;;;26.76;38.62;100360.72;5071570;28;1068;-31
2023/05/22 12:21:11;;;;;;;;;;;;;;;26.78;38.84;100361.38;5077252;28;1116;-30
2023/05/22 12:23:46;;;;;;;;;;;;;;;26.68;38.38;100353.59;5041880;28;1125;-29
2023/05/22 12:26:11;;;;;;;;;;;;;;;26.83;38.43;100344.59;5058911;28;1090;-30
2023/05/22 12:28:37;;;;;;;;;;;;;;;26.85;38.11;100340.72;5065515;28;1336;-31
2023/05/22 12:31:02;;;;;;;;;;;;;;;26.90;38.40;100345.53;5065774;28;1973;-33
2023/05/22 12:33:28;;;;;;;;;;;;;;;26.90;37.90;100335.56;5041288;28;1019;-30
2023/05/22 12:35:57;;;;;;;;;;;;;;;26.93;37.79;100344.28;5061474;28;1129;-31
2023/05/22 12:38:26;;;;;;;;;;;;;;;26.81;38.11;100350.19;5072491;28;1281;-34
2023/05/22 12:40:51;;;;;;;;;;;;;;;26.85;37.88;100359.59;5066470;28;1186;-29
2023/05/22 12:43:17;;;;;;;;;;;;;;;26.85;38.29;100375.78;5083166;28;1458;-29
2023/05/22 12:45:43;;;;;;;;;;;;;;;26.89;38.47;100374.38;5034809;28;1308;-34
2023/05/22 12:48:08;;;;;;;;;;;;;;;26.93;38.52;100376.69;5034107;28;1501;-31